sensor_id;sensor_type;location;lat;lon;timestamp;pressure;altitude;pressure_sealevel;temperature;humidity
692;BME280;70475;50.084;8.576;2023-06-26T00:01:46;100541.31;;;19.24;75.34
692;BME280;70475;50.084;8.576;2023-06-26T00:04:13;100541.38;;;19.01;77.31
692;BME280;70475;50.084;8.576;2023-06-26T00:06:41;100538.91;;;18.83;77.65
692;BME280;70475;50.084;8.576;2023-06-26T00:09:09;100541.72;;;18.77;78.42
692;BME280;70475;50.084;8.576;2023-06-26T00:11:39;100542.13;;;18.69;78.36
692;BME280;70475;50.084;8.576;2023-06-26T00:14:07;100535.72;;;18.75;77.71
692;BME280;70475;50.084;8.576;2023-06-26T00:16:35;100542.91;;;18.69;77.93
692;BME280;70475;50.084;8.576;2023-06-26T00:19:03;100542.13;;;18.69;77.73
692;BME280;70475;50.084;8.576;2023-06-26T00:21:30;100535.88;;;18.68;77.65
692;BME280;70475;50.084;8.576;2023-06-26T00:23:58;100541.09;;;18.58;78.31
692;BME280;70475;50.084;8.576;2023-06-26T00:26:25;100538.75;;;18.50;78.32
692;BME280;70475;50.084;8.576;2023-06-26T00:28:54;100549.19;;;18.47;78.47
692;BME280;70475;50.084;8.576;2023-06-26T00:31:22;100548.13;;;18.36;79.04
692;BME280;70475;50.084;8.576;2023-06-26T00:33:49;100552.25;;;18.38;79.34
692;BME280;70475;50.084;8.576;2023-06-26T00:36:17;100539.69;;;18.44;79.08
692;BME280;70475;50.084;8.576;2023-06-26T00:38:44;100540.59;;;18.50;78.71
692;BME280;70475;50.084;8.576;2023-06-26T00:41:12;100545.31;;;18.42;79.25
692;BME280;70475;50.084;8.576;2023-06-26T00:43:40;100538.25;;;18.53;78.01
692;BME280;70475;50.084;8.576;2023-06-26T00:46:12;100541.06;;;18.35;79.27
692;BME280;70475;50.084;8.576;2023-06-26T00:48:42;100541.00;;;18.18;80.56
692;BME280;70475;50.084;8.576;2023-06-26T00:51:12;100547.78;;;18.09;81.44
692;BME280;70475;50.084;8.576;2023-06-26T00:53:40;100539.69;;;17.98;81.90
692;BME280;70475;50.084;8.576;2023-06-26T00:56:07;100540.38;;;17.82;82.60
692;BME280;70475;50.084;8.576;2023-06-26T00:58:35;100530.19;;;17.72;83.30
692;BME280;70475;50.084;8.576;2023-06-26T01:01:03;100526.56;;;17.67;83.58
692;BME280;70475;50.084;8.576;2023-06-26T01:03:33;100534.41;;;17.68;83.85
692;BME280;70475;50.084;8.576;2023-06-26T01:06:03;100527.75;;;17.71;83.31
692;BME280;70475;50.084;8.576;2023-06-26T01:08:31;100527.13;;;17.69;83.65
692;BME280;70475;50.084;8.576;2023-06-26T01:10:59;100519.66;;;17.82;82.38
692;BME280;70475;50.084;8.576;2023-06-26T01:13:28;100526.22;;;17.86;82.32
692;BME280;70475;50.084;8.576;2023-06-26T01:15:56;100524.34;;;17.98;81.11
692;BME280;70475;50.084;8.576;2023-06-26T01:18:25;100518.50;;;17.90;81.51
692;BME280;70475;50.084;8.576;2023-06-26T01:20:54;100517.28;;;17.63;83.52
692;BME280;70475;50.084;8.576;2023-06-26T01:23:30;100519.75;;;17.53;84.27
692;BME280;70475;50.084;8.576;2023-06-26T01:26:12;100513.19;;;17.49;84.77
692;BME280;70475;50.084;8.576;2023-06-26T01:28:42;100518.56;;;17.49;84.38
692;BME280;70475;50.084;8.576;2023-06-26T01:31:10;100514.22;;;17.48;84.80
692;BME280;70475;50.084;8.576;2023-06-26T01:33:39;100516.34;;;17.46;84.79
692;BME280;70475;50.084;8.576;2023-06-26T01:36:07;100510.34;;;17.44;84.63
692;BME280;70475;50.084;8.576;2023-06-26T01:38:35;100510.50;;;17.60;83.17
692;BME280;70475;50.084;8.576;2023-06-26T01:41:03;100507.13;;;17.53;83.46
692;BME280;70475;50.084;8.576;2023-06-26T01:43:40;100510.75;;;17.59;83.17
692;BME280;70475;50.084;8.576;2023-06-26T01:46:11;100509.91;;;17.58;83.24
692;BME280;70475;50.084;8.576;2023-06-26T01:48:49;100503.13;;;17.56;83.90
692;BME280;70475;50.084;8.576;2023-06-26T01:51:21;100501.25;;;17.45;84.22
692;BME280;70475;50.084;8.576;2023-06-26T01:53:53;100498.00;;;17.25;85.14
692;BME280;70475;50.084;8.576;2023-06-26T01:56:23;100496.81;;;17.21;85.82
692;BME280;70475;50.084;8.576;2023-06-26T01:58:54;100503.16;;;17.38;84.41
692;BME280;70475;50.084;8.576;2023-06-26T02:01:22;100499.53;;;17.21;85.66
692;BME280;70475;50.084;8.576;2023-06-26T02:03:50;100504.50;;;17.06;86.84
692;BME280;70475;50.084;8.576;2023-06-26T02:06:18;100499.59;;;17.14;86.41
692;BME280;70475;50.084;8.576;2023-06-26T02:08:45;100503.56;;;17.00;87.09
692;BME280;70475;50.084;8.576;2023-06-26T02:11:13;100503.28;;;16.90;87.79
692;BME280;70475;50.084;8.576;2023-06-26T02:13:40;100508.34;;;16.98;87.38
692;BME280;70475;50.084;8.576;2023-06-26T02:16:09;100511.25;;;16.97;87.11
692;BME280;70475;50.084;8.576;2023-06-26T02:18:37;100507.59;;;16.91;87.56
692;BME280;70475;50.084;8.576;2023-06-26T02:21:05;100503.88;;;16.92;87.17
692;BME280;70475;50.084;8.576;2023-06-26T02:23:33;100505.91;;;16.79;87.70
692;BME280;70475;50.084;8.576;2023-06-26T02:26:01;100497.25;;;16.77;88.13
692;BME280;70475;50.084;8.576;2023-06-26T02:28:28;100497.53;;;16.87;87.29
692;BME280;70475;50.084;8.576;2023-06-26T02:30:57;100496.44;;;16.76;87.94
692;BME280;70475;50.084;8.576;2023-06-26T02:33:26;100500.53;;;16.79;88.09
692;BME280;70475;50.084;8.576;2023-06-26T02:35:53;100509.81;;;16.65;88.88
692;BME280;70475;50.084;8.576;2023-06-26T02:38:21;100503.63;;;16.64;89.05
692;BME280;70475;50.084;8.576;2023-06-26T02:40:48;100516.09;;;16.59;89.43
692;BME280;70475;50.084;8.576;2023-06-26T02:43:16;100500.44;;;16.56;89.10
692;BME280;70475;50.084;8.576;2023-06-26T02:45:43;100516.09;;;16.59;88.89
692;BME280;70475;50.084;8.576;2023-06-26T02:48:11;100502.50;;;16.54;89.36
692;BME280;70475;50.084;8.576;2023-06-26T02:50:40;100504.53;;;16.40;90.49
692;BME280;70475;50.084;8.576;2023-06-26T02:53:07;100500.41;;;16.37;90.80
692;BME280;70475;50.084;8.576;2023-06-26T02:55:35;100509.28;;;16.38;90.60
692;BME280;70475;50.084;8.576;2023-06-26T02:58:02;100502.97;;;16.32;90.95
692;BME280;70475;50.084;8.576;2023-06-26T03:00:31;100502.97;;;16.32;91.30
692;BME280;70475;50.084;8.576;2023-06-26T03:02:59;100488.22;;;16.17;92.87
692;BME280;70475;50.084;8.576;2023-06-26T03:05:27;100499.66;;;16.12;92.68
692;BME280;70475;50.084;8.576;2023-06-26T03:07:56;100502.66;;;16.04;93.16
692;BME280;70475;50.084;8.576;2023-06-26T03:10:23;100498.63;;;16.13;92.75
692;BME280;70475;50.084;8.576;2023-06-26T03:12:51;100495.19;;;16.24;91.90
692;BME280;70475;50.084;8.576;2023-06-26T03:15:18;100494.56;;;16.22;91.42
692;BME280;70475;50.084;8.576;2023-06-26T03:17:46;100488.47;;;16.15;91.91
692;BME280;70475;50.084;8.576;2023-06-26T03:20:14;100497.84;;;16.06;93.32
692;BME280;70475;50.084;8.576;2023-06-26T03:22:41;100497.78;;;16.13;92.83
692;BME280;70475;50.084;8.576;2023-06-26T03:25:10;100497.56;;;16.14;92.73
692;BME280;70475;50.084;8.576;2023-06-26T03:27:38;100499.06;;;16.10;92.98
692;BME280;70475;50.084;8.576;2023-06-26T03:30:06;100498.97;;;16.17;92.31
692;BME280;70475;50.084;8.576;2023-06-26T03:32:34;100498.47;;;16.08;92.72
692;BME280;70475;50.084;8.576;2023-06-26T03:35:01;100496.22;;;16.05;92.43
692;BME280;70475;50.084;8.576;2023-06-26T03:37:32;100500.41;;;16.19;90.93
692;BME280;70475;50.084;8.576;2023-06-26T03:40:00;100493.84;;;16.15;91.87
692;BME280;70475;50.084;8.576;2023-06-26T03:42:29;100490.13;;;16.16;90.87
692;BME280;70475;50.084;8.576;2023-06-26T03:44:56;100492.47;;;16.06;91.67
692;BME280;70475;50.084;8.576;2023-06-26T03:47:24;100486.38;;;15.99;92.25
692;BME280;70475;50.084;8.576;2023-06-26T03:49:51;100491.13;;;15.97;92.23
692;BME280;70475;50.084;8.576;2023-06-26T03:52:19;100499.03;;;15.92;92.92
692;BME280;70475;50.084;8.576;2023-06-26T03:54:47;100503.41;;;16.11;92.05
692;BME280;70475;50.084;8.576;2023-06-26T03:57:15;100502.28;;;16.37;89.79
692;BME280;70475;50.084;8.576;2023-06-26T03:59:44;100502.50;;;16.54;88.42
692;BME280;70475;50.084;8.576;2023-06-26T04:02:11;100497.97;;;16.54;88.45
692;BME280;70475;50.084;8.576;2023-06-26T04:04:40;100490.31;;;16.69;87.05
692;BME280;70475;50.084;8.576;2023-06-26T04:07:07;100492.56;;;16.72;87.07
692;BME280;70475;50.084;8.576;2023-06-26T04:09:35;100490.00;;;16.77;86.77
692;BME280;70475;50.084;8.576;2023-06-26T04:12:03;100504.97;;;16.55;88.91
692;BME280;70475;50.084;8.576;2023-06-26T04:14:31;100502.38;;;16.67;88.03
692;BME280;70475;50.084;8.576;2023-06-26T04:17:00;100505.84;;;16.67;88.51
692;BME280;70475;50.084;8.576;2023-06-26T04:19:29;100505.19;;;16.72;88.20
692;BME280;70475;50.084;8.576;2023-06-26T04:21:57;100513.69;;;16.69;88.84
692;BME280;70475;50.084;8.576;2023-06-26T04:24:24;100513.41;;;16.77;88.17
692;BME280;70475;50.084;8.576;2023-06-26T04:26:52;100513.97;;;16.79;88.65
692;BME280;70475;50.084;8.576;2023-06-26T04:29:23;100505.25;;;16.95;87.30
692;BME280;70475;50.084;8.576;2023-06-26T04:31:51;100503.66;;;17.05;86.35
692;BME280;70475;50.084;8.576;2023-06-26T04:34:26;100513.19;;;17.08;86.58
692;BME280;70475;50.084;8.576;2023-06-26T04:36:54;100517.50;;;17.09;87.62
692;BME280;70475;50.084;8.576;2023-06-26T04:39:22;100511.56;;;17.18;86.60
692;BME280;70475;50.084;8.576;2023-06-26T04:41:49;100510.81;;;17.11;87.44
692;BME280;70475;50.084;8.576;2023-06-26T04:44:18;100510.09;;;17.04;88.44
692;BME280;70475;50.084;8.576;2023-06-26T04:46:46;100509.72;;;17.01;89.69
692;BME280;70475;50.084;8.576;2023-06-26T04:49:13;100503.59;;;17.12;89.03
692;BME280;70475;50.084;8.576;2023-06-26T04:51:45;100505.47;;;17.23;88.69
692;BME280;70475;50.084;8.576;2023-06-26T04:54:13;100513.84;;;17.33;88.46
692;BME280;70475;50.084;8.576;2023-06-26T04:56:40;100512.44;;;17.42;88.37
692;BME280;70475;50.084;8.576;2023-06-26T04:59:08;100505.00;;;17.55;87.39
692;BME280;70475;50.084;8.576;2023-06-26T05:01:39;100508.75;;;17.66;86.67
692;BME280;70475;50.084;8.576;2023-06-26T05:04:07;100512.66;;;17.81;86.47
692;BME280;70475;50.084;8.576;2023-06-26T05:06:35;100512.16;;;17.96;85.90
692;BME280;70475;50.084;8.576;2023-06-26T05:09:03;100511.00;;;18.03;85.08
692;BME280;70475;50.084;8.576;2023-06-26T05:11:31;100515.78;;;18.13;84.08
692;BME280;70475;50.084;8.576;2023-06-26T05:13:59;100518.13;;;18.21;83.75
692;BME280;70475;50.084;8.576;2023-06-26T05:16:26;100505.44;;;18.33;83.25
692;BME280;70475;50.084;8.576;2023-06-26T05:18:54;100509.22;;;18.44;83.41
692;BME280;70475;50.084;8.576;2023-06-26T05:21:22;100508.13;;;18.56;83.34
692;BME280;70475;50.084;8.576;2023-06-26T05:23:51;100510.28;;;18.71;83.37
692;BME280;70475;50.084;8.576;2023-06-26T05:26:21;100493.25;;;18.82;82.80
692;BME280;70475;50.084;8.576;2023-06-26T05:28:49;100505.38;;;18.96;82.41
692;BME280;70475;50.084;8.576;2023-06-26T05:31:17;100506.75;;;19.10;80.89
692;BME280;70475;50.084;8.576;2023-06-26T05:33:45;100512.19;;;19.26;80.21
692;BME280;70475;50.084;8.576;2023-06-26T05:36:16;100504.34;;;19.41;80.08
692;BME280;70475;50.084;8.576;2023-06-26T05:38:44;100506.00;;;19.59;78.07
692;BME280;70475;50.084;8.576;2023-06-26T05:41:12;100503.28;;;19.75;78.02
692;BME280;70475;50.084;8.576;2023-06-26T05:43:41;100495.91;;;19.87;77.85
692;BME280;70475;50.084;8.576;2023-06-26T05:46:09;100500.22;;;20.05;77.59
692;BME280;70475;50.084;8.576;2023-06-26T05:48:36;100503.66;;;20.17;76.29
692;BME280;70475;50.084;8.576;2023-06-26T05:51:04;100495.69;;;20.27;74.54
692;BME280;70475;50.084;8.576;2023-06-26T05:53:32;100502.56;;;20.34;73.95
692;BME280;70475;50.084;8.576;2023-06-26T05:56:01;100506.53;;;20.49;73.18
692;BME280;70475;50.084;8.576;2023-06-26T05:58:28;100502.63;;;20.61;72.53
692;BME280;70475;50.084;8.576;2023-06-26T06:00:58;100498.66;;;20.69;74.12
692;BME280;70475;50.084;8.576;2023-06-26T06:03:26;100505.28;;;20.83;73.67
692;BME280;70475;50.084;8.576;2023-06-26T06:05:53;100507.31;;;20.92;72.28
692;BME280;70475;50.084;8.576;2023-06-26T06:08:21;100495.81;;;21.02;72.37
692;BME280;70475;50.084;8.576;2023-06-26T06:10:49;100506.66;;;21.02;73.29
692;BME280;70475;50.084;8.576;2023-06-26T06:13:16;100503.47;;;21.10;72.50
692;BME280;70475;50.084;8.576;2023-06-26T06:15:44;100502.69;;;21.14;72.30
692;BME280;70475;50.084;8.576;2023-06-26T06:18:13;100499.88;;;21.31;72.26
692;BME280;70475;50.084;8.576;2023-06-26T06:20:40;100499.44;;;21.44;71.52
692;BME280;70475;50.084;8.576;2023-06-26T06:23:08;100500.63;;;21.53;71.49
692;BME280;70475;50.084;8.576;2023-06-26T06:25:35;100492.88;;;21.66;70.63
692;BME280;70475;50.084;8.576;2023-06-26T06:28:03;100501.44;;;21.85;68.87
692;BME280;70475;50.084;8.576;2023-06-26T06:30:31;100492.00;;;21.92;70.24
692;BME280;70475;50.084;8.576;2023-06-26T06:33:02;100496.66;;;22.02;67.86
692;BME280;70475;50.084;8.576;2023-06-26T06:35:31;100495.63;;;22.13;64.79
692;BME280;70475;50.084;8.576;2023-06-26T06:37:58;100500.63;;;22.31;64.57
692;BME280;70475;50.084;8.576;2023-06-26T06:40:26;100483.81;;;22.34;65.97
692;BME280;70475;50.084;8.576;2023-06-26T06:42:54;100481.09;;;22.39;64.09
692;BME280;70475;50.084;8.576;2023-06-26T06:45:21;100489.28;;;22.44;64.62
692;BME280;70475;50.084;8.576;2023-06-26T06:47:49;100487.16;;;22.51;65.44
692;BME280;70475;50.084;8.576;2023-06-26T06:50:17;100489.69;;;22.68;63.14
692;BME280;70475;50.084;8.576;2023-06-26T06:52:46;100489.69;;;22.78;62.30
692;BME280;70475;50.084;8.576;2023-06-26T06:55:13;100495.44;;;22.91;62.19
692;BME280;70475;50.084;8.576;2023-06-26T06:57:41;100496.59;;;23.05;60.04
692;BME280;70475;50.084;8.576;2023-06-26T07:00:10;100501.75;;;23.12;58.76
692;BME280;70475;50.084;8.576;2023-06-26T07:02:39;100504.47;;;23.17;61.23
692;BME280;70475;50.084;8.576;2023-06-26T07:05:07;100494.47;;;23.27;61.20
692;BME280;70475;50.084;8.576;2023-06-26T07:07:38;100495.84;;;23.45;60.11
692;BME280;70475;50.084;8.576;2023-06-26T07:10:09;100491.50;;;23.54;59.18
692;BME280;70475;50.084;8.576;2023-06-26T07:12:37;100487.41;;;23.66;60.34
692;BME280;70475;50.084;8.576;2023-06-26T07:15:06;100484.41;;;23.73;57.86
692;BME280;70475;50.084;8.576;2023-06-26T07:17:34;100489.28;;;23.81;59.95
692;BME280;70475;50.084;8.576;2023-06-26T07:20:05;100483.84;;;23.86;57.57
692;BME280;70475;50.084;8.576;2023-06-26T07:22:34;100490.13;;;23.96;57.57
692;BME280;70475;50.084;8.576;2023-06-26T07:25:02;100493.63;;;24.07;58.31
692;BME280;70475;50.084;8.576;2023-06-26T07:27:31;100498.75;;;24.23;56.54
692;BME280;70475;50.084;8.576;2023-06-26T07:29:59;100498.47;;;24.35;54.86
692;BME280;70475;50.084;8.576;2023-06-26T07:32:27;100493.81;;;24.41;55.85
692;BME280;70475;50.084;8.576;2023-06-26T07:34:55;100497.03;;;24.43;55.26
692;BME280;70475;50.084;8.576;2023-06-26T07:37:22;100488.31;;;24.46;56.03
692;BME280;70475;50.084;8.576;2023-06-26T07:39:50;100487.75;;;24.54;56.30
692;BME280;70475;50.084;8.576;2023-06-26T07:42:18;100493.16;;;24.64;57.16
692;BME280;70475;50.084;8.576;2023-06-26T07:44:47;100489.63;;;24.63;56.19
692;BME280;70475;50.084;8.576;2023-06-26T07:47:15;100493.16;;;24.64;56.37
692;BME280;70475;50.084;8.576;2023-06-26T07:49:43;100484.63;;;24.85;55.00
692;BME280;70475;50.084;8.576;2023-06-26T07:52:10;100489.25;;;24.85;54.13
692;BME280;70475;50.084;8.576;2023-06-26T07:54:38;100490.50;;;25.02;54.42
692;BME280;70475;50.084;8.576;2023-06-26T07:57:06;100475.97;;;25.17;52.91
692;BME280;70475;50.084;8.576;2023-06-26T07:59:35;100476.53;;;25.14;52.26
692;BME280;70475;50.084;8.576;2023-06-26T08:02:04;100469.13;;;25.19;50.81
692;BME280;70475;50.084;8.576;2023-06-26T08:04:31;100475.38;;;25.25;51.48
692;BME280;70475;50.084;8.576;2023-06-26T08:07:01;100480.41;;;25.46;52.37
692;BME280;70475;50.084;8.576;2023-06-26T08:09:30;100476.97;;;25.64;50.58
692;BME280;70475;50.084;8.576;2023-06-26T08:11:58;100486.66;;;25.80;50.52
692;BME280;70475;50.084;8.576;2023-06-26T08:14:26;100477.75;;;25.70;49.82
692;BME280;70475;50.084;8.576;2023-06-26T08:16:53;100488.38;;;25.71;50.61
692;BME280;70475;50.084;8.576;2023-06-26T08:19:23;100480.81;;;25.63;50.04
692;BME280;70475;50.084;8.576;2023-06-26T08:21:50;100483.16;;;25.75;50.92
692;BME280;70475;50.084;8.576;2023-06-26T08:24:18;100487.50;;;25.76;49.17
692;BME280;70475;50.084;8.576;2023-06-26T08:26:46;100492.75;;;25.96;48.90
692;BME280;70475;50.084;8.576;2023-06-26T08:29:14;100485.97;;;25.93;50.26
692;BME280;70475;50.084;8.576;2023-06-26T08:31:43;100481.88;;;26.20;50.36
692;BME280;70475;50.084;8.576;2023-06-26T08:34:10;100487.88;;;26.22;49.17
692;BME280;70475;50.084;8.576;2023-06-26T08:36:39;100487.34;;;26.20;49.40
692;BME280;70475;50.084;8.576;2023-06-26T08:39:07;100493.88;;;26.24;50.62
692;BME280;70475;50.084;8.576;2023-06-26T08:41:35;100490.00;;;26.30;49.04
692;BME280;70475;50.084;8.576;2023-06-26T08:44:02;100485.03;;;26.32;48.95
692;BME280;70475;50.084;8.576;2023-06-26T08:46:31;100485.56;;;26.34;48.86
692;BME280;70475;50.084;8.576;2023-06-26T08:49:01;100496.44;;;26.39;48.92
692;BME280;70475;50.084;8.576;2023-06-26T08:51:33;100492.47;;;26.50;46.31
692;BME280;70475;50.084;8.576;2023-06-26T08:54:11;100493.44;;;26.59;47.16
692;BME280;70475;50.084;8.576;2023-06-26T08:56:42;100480.94;;;26.76;47.80
692;BME280;70475;50.084;8.576;2023-06-26T08:59:12;100487.03;;;26.92;45.58
692;BME280;70475;50.084;8.576;2023-06-26T09:01:41;100489.75;;;27.10;46.31
692;BME280;70475;50.084;8.576;2023-06-26T09:04:09;100487.78;;;27.34;46.14
692;BME280;70475;50.084;8.576;2023-06-26T09:06:36;100479.75;;;27.56;43.71
692;BME280;70475;50.084;8.576;2023-06-26T09:09:07;100482.72;;;27.73;42.33
692;BME280;70475;50.084;8.576;2023-06-26T09:11:35;100483.75;;;27.77;42.16
692;BME280;70475;50.084;8.576;2023-06-26T09:14:02;100484.97;;;27.85;42.20
692;BME280;70475;50.084;8.576;2023-06-26T09:16:32;100483.81;;;27.91;42.97
692;BME280;70475;50.084;8.576;2023-06-26T09:18:59;100487.34;;;27.91;44.04
692;BME280;70475;50.084;8.576;2023-06-26T09:21:27;100483.72;;;27.96;43.31
692;BME280;70475;50.084;8.576;2023-06-26T09:23:54;100486.88;;;28.03;42.22
692;BME280;70475;50.084;8.576;2023-06-26T09:26:24;100480.16;;;27.95;42.42
692;BME280;70475;50.084;8.576;2023-06-26T09:28:52;100488.59;;;27.99;43.12
692;BME280;70475;50.084;8.576;2023-06-26T09:31:20;100493.34;;;28.07;42.88
692;BME280;70475;50.084;8.576;2023-06-26T09:34:06;100489.81;;;28.07;42.07
692;BME280;70475;50.084;8.576;2023-06-26T09:36:33;100501.97;;;28.01;42.29
692;BME280;70475;50.084;8.576;2023-06-26T09:39:07;100492.94;;;28.00;42.07
692;BME280;70475;50.084;8.576;2023-06-26T09:41:40;100498.22;;;28.10;42.12
692;BME280;70475;50.084;8.576;2023-06-26T09:44:10;100503.91;;;28.14;41.89
692;BME280;70475;50.084;8.576;2023-06-26T09:46:39;100503.88;;;27.86;41.85
692;BME280;70475;50.084;8.576;2023-06-26T09:49:08;100500.34;;;27.99;42.55
692;BME280;70475;50.084;8.576;2023-06-26T09:51:37;100496.22;;;28.02;43.98
692;BME280;70475;50.084;8.576;2023-06-26T09:54:06;100503.22;;;28.22;42.73
692;BME280;70475;50.084;8.576;2023-06-26T09:56:34;100516.53;;;28.42;41.88
692;BME280;70475;50.084;8.576;2023-06-26T09:59:04;100511.88;;;28.56;41.86
692;BME280;70475;50.084;8.576;2023-06-26T10:01:33;100506.91;;;28.58;42.39
692;BME280;70475;50.084;8.576;2023-06-26T10:04:00;100509.84;;;28.61;42.35
692;BME280;70475;50.084;8.576;2023-06-26T10:06:35;100515.94;;;28.72;41.74
692;BME280;70475;50.084;8.576;2023-06-26T10:09:03;100513.06;;;28.77;42.31
692;BME280;70475;50.084;8.576;2023-06-26T10:11:36;100516.56;;;28.55;42.49
692;BME280;70475;50.084;8.576;2023-06-26T10:14:07;100512.38;;;28.58;43.83
692;BME280;70475;50.084;8.576;2023-06-26T10:16:44;100509.03;;;28.74;43.05
692;BME280;70475;50.084;8.576;2023-06-26T10:19:13;100517.41;;;28.91;41.35
692;BME280;70475;50.084;8.576;2023-06-26T10:21:42;100515.94;;;28.72;41.83
692;BME280;70475;50.084;8.576;2023-06-26T10:24:10;100528.00;;;28.44;43.12
692;BME280;70475;50.084;8.576;2023-06-26T10:26:42;100521.41;;;28.45;41.74
692;BME280;70475;50.084;8.576;2023-06-26T10:29:13;100524.22;;;28.40;42.70
692;BME280;70475;50.084;8.576;2023-06-26T10:31:45;100525.56;;;28.42;41.67
692;BME280;70475;50.084;8.576;2023-06-26T10:34:14;100519.19;;;28.60;41.21
692;BME280;70475;50.084;8.576;2023-06-26T10:36:42;100511.69;;;28.66;39.09
692;BME280;70475;50.084;8.576;2023-06-26T10:39:09;100516.72;;;28.72;40.55
692;BME280;70475;50.084;8.576;2023-06-26T10:41:39;100518.34;;;28.87;40.49
692;BME280;70475;50.084;8.576;2023-06-26T10:44:27;100516.34;;;28.65;40.35
692;BME280;70475;50.084;8.576;2023-06-26T10:47:07;100519.38;;;28.64;40.07
692;BME280;70475;50.084;8.576;2023-06-26T10:49:36;100511.06;;;28.69;40.03
692;BME280;70475;50.084;8.576;2023-06-26T10:52:06;100521.91;;;28.60;39.77
692;BME280;70475;50.084;8.576;2023-06-26T10:54:34;100517.66;;;28.68;39.35
692;BME280;70475;50.084;8.576;2023-06-26T10:57:02;100525.97;;;28.76;40.18
692;BME280;70475;50.084;8.576;2023-06-26T10:59:32;100527.09;;;28.62;39.42
692;BME280;70475;50.084;8.576;2023-06-26T11:02:01;100522.84;;;28.56;39.84
692;BME280;70475;50.084;8.576;2023-06-26T11:04:39;100522.94;;;28.64;40.48
692;BME280;70475;50.084;8.576;2023-06-26T11:07:18;100524.16;;;28.58;41.17
692;BME280;70475;50.084;8.576;2023-06-26T11:09:57;100516.34;;;28.65;41.73
692;BME280;70475;50.084;8.576;2023-06-26T11:12:35;100514.91;;;28.68;41.59
692;BME280;70475;50.084;8.576;2023-06-26T11:15:07;100517.94;;;28.80;41.37
692;BME280;70475;50.084;8.576;2023-06-26T11:17:35;100518.63;;;28.85;40.73
692;BME280;70475;50.084;8.576;2023-06-26T11:20:05;100510.84;;;28.79;41.03
692;BME280;70475;50.084;8.576;2023-06-26T11:22:35;100511.22;;;28.99;41.70
692;BME280;70475;50.084;8.576;2023-06-26T11:25:04;100510.53;;;28.94;41.41
692;BME280;70475;50.084;8.576;2023-06-26T11:27:32;100512.84;;;28.87;41.34
692;BME280;70475;50.084;8.576;2023-06-26T11:30:00;100518.91;;;28.48;40.94
692;BME280;70475;50.084;8.576;2023-06-26T11:32:29;100517.03;;;28.44;41.73
692;BME280;70475;50.084;8.576;2023-06-26T11:34:59;100523.44;;;28.53;42.18
692;BME280;70475;50.084;8.576;2023-06-26T11:37:26;100520.25;;;28.32;42.73
692;BME280;70475;50.084;8.576;2023-06-26T11:39:54;100516.47;;;28.47;42.70
692;BME280;70475;50.084;8.576;2023-06-26T11:42:23;100522.53;;;28.57;41.90
692;BME280;70475;50.084;8.576;2023-06-26T11:44:52;100529.91;;;28.84;40.53
692;BME280;70475;50.084;8.576;2023-06-26T11:47:20;100503.28;;;28.98;40.44
692;BME280;70475;50.084;8.576;2023-06-26T11:49:50;100513.44;;;29.11;40.43
692;BME280;70475;50.084;8.576;2023-06-26T11:52:17;100513.34;;;29.02;40.80
692;BME280;70475;50.084;8.576;2023-06-26T11:54:45;100514.84;;;29.22;40.86
692;BME280;70475;50.084;8.576;2023-06-26T11:57:14;100508.88;;;29.06;39.84
692;BME280;70475;50.084;8.576;2023-06-26T11:59:43;100513.50;;;29.19;40.05
692;BME280;70475;50.084;8.576;2023-06-26T12:02:13;100516.91;;;29.38;39.80
692;BME280;70475;50.084;8.576;2023-06-26T12:04:42;100523.78;;;29.49;38.92
692;BME280;70475;50.084;8.576;2023-06-26T12:07:12;100522.06;;;29.18;39.11
692;BME280;70475;50.084;8.576;2023-06-26T12:09:42;100522.91;;;29.05;39.30
692;BME280;70475;50.084;8.576;2023-06-26T12:12:11;100530.03;;;29.28;39.45
692;BME280;70475;50.084;8.576;2023-06-26T12:14:39;100527.06;;;28.89;39.73
692;BME280;70475;50.084;8.576;2023-06-26T12:17:10;100532.03;;;29.00;40.49
692;BME280;70475;50.084;8.576;2023-06-26T12:19:38;100533.16;;;28.86;39.01
692;BME280;70475;50.084;8.576;2023-06-26T12:22:07;100542.31;;;28.68;39.76
692;BME280;70475;50.084;8.576;2023-06-26T12:24:37;100543.75;;;28.79;40.40
692;BME280;70475;50.084;8.576;2023-06-26T12:27:10;100537.22;;;28.88;40.15
692;BME280;70475;50.084;8.576;2023-06-26T12:29:39;100535.22;;;28.80;40.96
692;BME280;70475;50.084;8.576;2023-06-26T12:32:10;100541.31;;;28.64;41.74
692;BME280;70475;50.084;8.576;2023-06-26T12:34:39;100534.00;;;28.59;41.64
692;BME280;70475;50.084;8.576;2023-06-26T12:37:08;100538.06;;;28.62;41.76
692;BME280;70475;50.084;8.576;2023-06-26T12:39:48;100547.41;;;28.61;42.29
692;BME280;70475;50.084;8.576;2023-06-26T12:42:17;100547.09;;;28.49;42.62
692;BME280;70475;50.084;8.576;2023-06-26T12:44:45;100550.38;;;28.51;43.13
692;BME280;70475;50.084;8.576;2023-06-26T12:47:13;100549.81;;;28.22;43.72
692;BME280;70475;50.084;8.576;2023-06-26T12:49:42;100553.22;;;28.14;43.89
692;BME280;70475;50.084;8.576;2023-06-26T12:52:13;100562.78;;;28.30;43.51
692;BME280;70475;50.084;8.576;2023-06-26T12:54:42;100551.84;;;28.43;43.65
692;BME280;70475;50.084;8.576;2023-06-26T12:57:12;100556.63;;;28.38;44.58
692;BME280;70475;50.084;8.576;2023-06-26T12:59:40;100564.72;;;28.43;43.58
692;BME280;70475;50.084;8.576;2023-06-26T13:02:08;100566.13;;;28.27;43.47
692;BME280;70475;50.084;8.576;2023-06-26T13:04:37;100572.94;;;28.29;44.65
692;BME280;70475;50.084;8.576;2023-06-26T13:07:07;100561.38;;;28.19;44.54
692;BME280;70475;50.084;8.576;2023-06-26T13:09:35;100567.34;;;28.21;44.21
692;BME280;70475;50.084;8.576;2023-06-26T13:12:04;100573.59;;;28.08;44.48
692;BME280;70475;50.084;8.576;2023-06-26T13:14:33;100568.81;;;27.99;44.47
692;BME280;70475;50.084;8.576;2023-06-26T13:17:01;100560.91;;;27.79;44.54
692;BME280;70475;50.084;8.576;2023-06-26T13:19:30;100572.25;;;27.91;44.73